Skip Navigation Links
NOAA logo - Click to go to the NOAA homepage
NOAA's National Weather Service
Alaska Aviation Weather Unit
  NWS logo - Click to go to the NWS homepage
Left Navbar Graphic     02 AKDT = 10 GMT

   
NOAA is celebrating 200 years of science, service, and stewardship. Visit the NOAA 200th celebration Web site to learn more.
USA.gov is the U.S. Government's official Web portal to all Federal, state and local government Web resources and services.
Facebook
NWS on Facebook

AAWU Home :: Display TAF Add Bookmark
METAR PATE 270458Z AUTO 11007KT 10SM CLR M16/M19 A2993 RMK AO2 SLP148
     T11561189 FZRANO=

METAR PATE 270558Z AUTO 10011KT 10SM CLR M16/M18 A2992 RMK AO2 SLP144
     T11561183 11128 21156 58006 FZRANO=

METAR PATE 270658Z AUTO 12012KT 10SM CLR M15/M18 A2991 RMK AO2 SLP143
     T11501183 FZRANO=

METAR PATE 270758Z AUTO 12013KT 10SM CLR M15/M18 A2991 RMK AO2 SLP143
     T11501183 FZRANO=

METAR PATE 270858Z AUTO 12011KT 10SM CLR M16/M19 A2990 RMK AO2 SLP139
     T11561189 411221178 58005 FZRANO=

METAR PATE 270958Z AUTO 13011KT 10SM CLR M15/M18 A2990 RMK AO2 SLP138
     T11501183 FZRANO=


NOAA's National Weather Service
Alaska Aviation Weather Unit
6930 Sand Lake Road
Anchorage, AK 99502-1845
Disclaimer
Credits
Glossary
Privacy Policy
About Us
Career Opportunities
Contact AAWU Internet Services Site last modified: April, 17th 2012